Sertosa Veintisiete — EAJZ — position and weather

sailwx.info

Track history (hours):
 
Tides and Currents Weather Stations Pressure Air Temp Water Temp Dewpoint Dewpoint Depression Visibility Wind Speed Wind Dir Waves Ship Positions

Sertosa Veintisiete

Last reported at 2014-Sep-08 10:34 UTC. Time now 2014-Oct-30 13:54 UTC.
Position N 35°54' W 005°19'.
Warning: this ship's position is 52 days out of date.

Length 30 m; draft 5.5 m.

Type: Tug. MMSI: 224337000.

Date/timePositionNaut miles runAvg speedWind from/ knotsBaromVisibWave heightAir tempDewpointWater temp
2014-Sep-08 10:34N 35°54' W 005°19'1 0.7
2014-Sep-08 09:34N 35°54' W 005°19'0 0.1
2014-Sep-08 08:34N 35°54' W 005°19'0 0.0
2014-Sep-08 07:34N 35°54' W 005°19'2 1.7
2014-Sep-08 06:34N 35°55' W 005°19'1 0.1
2014-Sep-07 13:26N 35°56' W 005°19'3 3.3
2014-Sep-07 12:34N 35°54' W 005°18'1 0.5
2014-Sep-07 11:34N 35°54' W 005°19'1 0.9
2014-Sep-07 10:33N 35°54' W 005°18'  
2014-Sep-04 19:33N 35°57' W 005°21'4 3.7
2014-Sep-04 18:33N 35°54' W 005°19'0 0.5
2014-Sep-04 17:33N 35°54' W 005°19'0 0.0
2014-Sep-04 16:33N 35°54' W 005°19'0 0.0
2014-Sep-04 15:33N 35°54' W 005°19'6 4.9
2014-Sep-04 14:25N 35°59' W 005°21'1 0.0
2014-Sep-04 00:08N 35°59' W 005°21'5 8.5
2014-Sep-03 23:33N 35°54' W 005°19'0 0.4
2014-Sep-03 22:33N 35°54' W 005°18'0 0.5
2014-Sep-03 21:33N 35°54' W 005°19'0 0.0
2014-Sep-03 20:33N 35°54' W 005°19'0 0.0
2014-Sep-03 19:33N 35°54' W 005°19'0 0.0
2014-Sep-03 18:33N 35°54' W 005°19'0 0.0
2014-Sep-03 17:33N 35°54' W 005°19'3 2.9
2014-Sep-03 16:33N 35°56' W 005°18'  
Track history (hours):
 
Tides and Currents Weather Stations Pressure Air Temp Water Temp Dewpoint Dewpoint Depression Visibility Wind Speed Wind Dir Waves Ship Positions

Sertosa Veintisiete

Last reported at 2014-Sep-08 10:34 UTC. Time now 2014-Oct-30 13:54 UTC.
Position N 35°54' W 005°19'.
Warning: this ship's position is 52 days out of date.

Length 30 m; draft 5.5 m.

Type: Tug. MMSI: 224337000.

Date/timePositionNaut miles runAvg speedWind from/ knotsBaromVisibWave heightAir tempDewpointWater temp
2014-Sep-08 10:34N 35°54' W 005°19'1 0.7
2014-Sep-08 09:34N 35°54' W 005°19'0 0.1
2014-Sep-08 08:34N 35°54' W 005°19'0 0.0
2014-Sep-08 07:34N 35°54' W 005°19'2 1.7
2014-Sep-08 06:34N 35°55' W 005°19'1 0.1
2014-Sep-07 13:26N 35°56' W 005°19'3 3.3
2014-Sep-07 12:34N 35°54' W 005°18'1 0.5
2014-Sep-07 11:34N 35°54' W 005°19'1 0.9
2014-Sep-07 10:33N 35°54' W 005°18'  
2014-Sep-04 19:33N 35°57' W 005°21'4 3.7
2014-Sep-04 18:33N 35°54' W 005°19'0 0.5
2014-Sep-04 17:33N 35°54' W 005°19'0 0.0
2014-Sep-04 16:33N 35°54' W 005°19'0 0.0
2014-Sep-04 15:33N 35°54' W 005°19'6 4.9
2014-Sep-04 14:25N 35°59' W 005°21'1 0.0
2014-Sep-04 00:08N 35°59' W 005°21'5 8.5
2014-Sep-03 23:33N 35°54' W 005°19'0 0.4
2014-Sep-03 22:33N 35°54' W 005°18'0 0.5
2014-Sep-03 21:33N 35°54' W 005°19'0 0.0
2014-Sep-03 20:33N 35°54' W 005°19'0 0.0
2014-Sep-03 19:33N 35°54' W 005°19'0 0.0
2014-Sep-03 18:33N 35°54' W 005°19'0 0.0
2014-Sep-03 17:33N 35°54' W 005°19'3 2.9
2014-Sep-03 16:33N 35°56' W 005°18'  

Dump ship's entire track history